Time;durP1;ratioP1;P1;durP2;ratioP2;P2;SDS_P1;SDS_P2;PMS_P1;PMS_P2;Temp;Humidity;BMP_temperature;BMP_pressure;BME280_temperature;BME280_humidity;BME280_pressure;Samples;Min_cycle;Max_cycle;Signal;HPM_P1;HPM_P2
2022/12/13 00:01:46;;;;;;;27.67;13.73;;;;;;;-3.45;100.00;101245.31;4964997;28;20054;-65
2022/12/13 00:04:13;;;;;;;;;;;;;;;-3.45;100.00;101247.88;5001645;28;20108;-66
2022/12/13 00:06:40;;;;;;;31.42;15.50;;;;;;;-3.53;100.00;101244.69;4991923;28;20337;-65
2022/12/13 00:09:07;;;;;;;29.13;15.18;;;;;;;-3.53;100.00;101243.84;4978147;28;20054;-67
2022/12/13 00:11:33;;;;;;;32.90;15.52;;;;;;;-3.52;100.00;101248.09;4984473;28;20117;-66
2022/12/13 00:14:00;;;;;;;29.35;15.00;;;;;;;-3.56;100.00;101251.66;4972488;28;20064;-66
2022/12/13 00:16:27;;;;;;;27.25;13.88;;;;;;;-3.56;100.00;101239.66;4979291;28;20137;-66
2022/12/13 00:18:58;;;;;;;30.17;15.55;;;;;;;-3.57;100.00;101227.72;4977111;28;20092;-67
2022/12/13 00:21:28;;;;;;;23.10;14.20;;;;;;;-3.58;100.00;101237.13;4985720;28;20043;-66
2022/12/13 00:23:55;;;;;;;28.15;13.52;;;;;;;-3.59;100.00;101239.75;4985760;28;20421;-67
2022/12/13 00:26:26;;;;;;;23.33;14.57;;;;;;;-3.55;100.00;101237.94;4974233;28;20434;-65
2022/12/13 00:28:53;;;;;;;24.38;13.70;;;;;;;-3.58;100.00;101238.88;4977698;28;20060;-66
2022/12/13 00:31:22;;;;;;;27.20;14.52;;;;;;;-3.58;100.00;101238.88;4979396;28;20046;-66
2022/12/13 00:34:09;;;;;;;27.30;13.48;;;;;;;-3.65;100.00;101233.06;4992183;28;20153;-66
2022/12/13 00:36:35;;;;;;;29.05;13.45;;;;;;;-3.62;100.00;101232.16;4980479;28;20109;-66
2022/12/13 00:39:02;;;;;;;26.38;15.18;;;;;;;-3.65;100.00;101243.31;4979239;28;20050;-67
2022/12/13 00:41:31;;;;;;;29.33;14.15;;;;;;;-3.63;100.00;101244.13;4973080;28;20058;-66
2022/12/13 00:43:59;;;;;;;30.75;15.23;;;;;;;-3.63;100.00;101236.41;4974094;28;20067;-66
2022/12/13 00:46:27;;;;;;;30.13;15.17;;;;;;;-3.64;100.00;101231.38;4978834;28;20054;-67
2022/12/13 00:48:59;;;;;;;29.48;15.32;;;;;;;-3.69;100.00;101226.34;4968883;28;20064;-67
2022/12/13 00:51:27;;;;;;;31.38;16.17;;;;;;;-3.67;100.00;101229.72;4987909;28;20524;-66
2022/12/13 00:53:54;;;;;;;28.48;15.50;;;;;;;-3.68;100.00;101227.22;4972347;28;20054;-67
2022/12/13 00:56:24;;;;;;;28.70;15.15;;;;;;;-3.67;100.00;101228.88;4981735;28;20097;-66
2022/12/13 00:58:52;;;;;;;29.73;15.27;;;;;;;-3.66;100.00;101223.72;4985758;28;20046;-66
2022/12/13 01:01:23;;;;;;;29.98;16.08;;;;;;;-3.68;100.00;101224.66;4981941;28;20057;-66
2022/12/13 01:03:51;;;;;;;31.23;14.98;;;;;;;-3.69;100.00;101230.66;4986843;28;20053;-66
2022/12/13 01:06:21;;;;;;;27.25;14.57;;;;;;;-3.71;100.00;101229.84;4973615;28;20325;-66
2022/12/13 01:08:48;;;;;;;29.35;16.10;;;;;;;-3.78;100.00;101222.34;4981632;28;20649;-66
2022/12/13 01:11:15;;;;;;;27.45;14.05;;;;;;;-3.77;100.00;101225.75;4977647;28;20066;-67
2022/12/13 01:13:41;;;;;;;29.00;16.02;;;;;;;-3.83;100.00;101220.81;4984647;28;20077;-66
2022/12/13 01:16:10;;;;;;;31.83;15.85;;;;;;;-3.83;100.00;101229.31;4973457;28;20046;-66
2022/12/13 01:18:38;;;;;;;27.58;14.05;;;;;;;-3.80;100.00;101234.38;4983639;28;20064;-67
2022/12/13 01:21:06;;;;;;;25.50;14.23;;;;;;;-3.86;100.00;101229.44;4993901;28;20062;-66
2022/12/13 01:23:33;;;;;;;28.48;14.40;;;;;;;-3.83;100.00;101226.75;4981601;28;20570;-67
2022/12/13 01:26:05;;;;;;;24.30;14.35;;;;;;;-3.79;100.00;101223.22;4997214;28;20058;-66
2022/12/13 01:28:32;;;;;;;22.77;13.30;;;;;;;-3.83;100.00;101220.81;4979131;28;20468;-66
2022/12/13 01:31:02;;;;;;;26.08;13.60;;;;;;;-3.79;100.00;101225.78;4986079;28;20058;-66
2022/12/13 01:33:29;;;;;;;27.08;13.45;;;;;;;-3.80;100.00;101230.97;4980170;28;20487;-66
2022/12/13 01:35:55;;;;;;;28.70;15.05;;;;;;;-3.83;100.00;101233.63;4993764;28;20791;-66
2022/12/13 01:38:22;;;;;;;26.25;13.45;;;;;;;-3.81;100.00;101221.59;4973513;28;20101;-65
2022/12/13 01:40:58;;;;;;;29.85;14.40;;;;;;;-3.83;100.00;101226.75;4975203;28;20058;-65
2022/12/13 01:43:28;;;;;;;26.02;14.32;;;;;;;-3.81;100.00;101229.28;4977450;28;20058;-67
2022/12/13 01:45:55;;;;;;;24.27;12.60;;;;;;;-3.84;100.00;101229.34;4972524;28;20557;-66
2022/12/13 01:48:29;;;;;;;25.58;13.02;;;;;;;-3.79;100.00;101238.59;4988405;28;20196;-67
2022/12/13 01:51:01;;;;;;;25.92;13.73;;;;;;;-3.81;100.00;101234.41;4983743;28;20387;-67
2022/12/13 01:53:31;;;;;;;26.58;13.20;;;;;;;-3.82;100.00;101238.72;4977192;28;20433;-67
2022/12/13 01:56:05;;;;;;;26.90;14.07;;;;;;;-3.85;100.00;101243.06;4988955;28;20046;-66
2022/12/13 01:58:32;;;;;;;31.98;15.35;;;;;;;-3.87;100.00;101239.72;4980204;28;20059;-67
2022/12/13 02:00:59;;;;;;;26.98;12.77;;;;;;;-3.94;100.00;101231.38;4989364;28;20400;-66
2022/12/13 02:03:26;;;;;;;24.45;13.63;;;;;;;-3.95;100.00;101222.00;4979929;28;21569;-67
2022/12/13 02:06:03;;;;;;;29.88;13.07;;;;;;;-3.93;100.00;101220.22;4979420;28;20054;-67
2022/12/13 02:08:31;;;;;;;25.83;14.32;;;;;;;-3.94;100.00;101225.38;4976594;28;20065;-66
2022/12/13 02:11:03;;;;;;;27.67;13.90;;;;;;;-3.94;100.00;101230.50;4982448;28;20170;-67
2022/12/13 02:13:29;;;;;;;25.45;12.02;;;;;;;-4.00;100.00;101223.84;4966772;28;20054;-66
2022/12/13 02:16:04;;;;;;;26.20;13.52;;;;;;;-3.97;100.00;101221.19;4981058;28;20057;-67
2022/12/13 02:19:02;;;;;;;26.55;14.27;;;;;;;-4.00;100.00;101221.28;4983103;28;20704;-67
2022/12/13 02:21:44;;;;;;;25.05;12.57;;;;;;;-4.06;100.00;101226.56;4968181;28;20054;-67
2022/12/13 02:24:25;;;;;;;29.63;13.40;;;;;;;-4.07;100.00;101225.75;4989378;28;20054;-67
2022/12/13 02:27:01;;;;;;;24.20;13.20;;;;;;;-4.10;100.00;101225.81;4985035;28;20418;-66
2022/12/13 02:29:43;;;;;;;28.73;13.85;;;;;;;-4.07;100.00;101225.75;4987785;28;20141;-66
2022/12/13 02:32:27;;;;;;;30.90;13.77;;;;;;;-4.10;100.00;101224.97;4976505;28;20120;-66
2022/12/13 02:35:02;;;;;;;20.00;11.73;;;;;;;-4.11;100.00;101229.28;4984993;28;20054;-66
2022/12/13 02:38:16;;;;;;;23.60;11.38;;;;;;;-4.12;100.00;101226.75;4986804;28;20498;-66
2022/12/13 02:41:12;;;;;;;22.35;12.00;;;;;;;-4.13;100.00;101215.66;4925309;28;20447;-66
2022/12/13 02:44:13;;;;;;;21.35;11.05;;;;;;;-4.18;100.00;101202.13;4987553;28;20050;-66
2022/12/13 02:47:01;;;;;;;26.08;12.15;;;;;;;-4.11;100.00;101207.94;4947080;28;20141;-66
2022/12/13 02:49:32;;;;;;;21.83;12.45;;;;;;;-4.18;100.00;101208.09;4970859;28;20042;-66
2022/12/13 02:52:00;;;;;;;23.10;11.52;;;;;;;-4.17;100.00;101217.47;4987833;28;20050;-66
2022/12/13 02:54:26;;;;;;;20.80;12.15;;;;;;;-4.15;100.00;101214.88;4989884;28;20047;-66
2022/12/13 02:56:54;;;;;;;20.63;11.35;;;;;;;-4.12;100.00;101212.22;4994291;28;20046;-66
2022/12/13 02:59:26;;;;;;;22.83;12.18;;;;;;;-4.15;100.00;101207.19;4987889;28;20267;-66
2022/12/13 03:02:08;;;;;;;21.90;11.35;;;;;;;-4.15;100.00;101207.19;4971370;28;20069;-66
2022/12/13 03:04:36;;;;;;;24.95;12.52;;;;;;;-4.22;100.00;101200.53;4989670;28;20054;-66
2022/12/13 03:07:25;;;;;;;24.63;13.13;;;;;;;-4.20;100.00;101204.72;4979606;28;20486;-67
2022/12/13 03:10:04;;;;;;;26.42;13.25;;;;;;;-4.25;100.00;101198.91;4986950;28;20061;-66
2022/12/13 03:15:44;;;;;;;23.80;12.32;;;;;;;-4.28;100.00;101195.59;4980424;28;20062;-66
2022/12/13 03:18:15;;;;;;;22.92;12.00;;;;;;;-4.25;100.00;101196.34;4981226;28;20077;-66
2022/12/13 03:20:50;;;;;;;25.58;12.32;;;;;;;-4.23;100.00;101202.28;4988857;28;20050;-66
2022/12/13 03:23:18;;;;;;;23.58;11.65;;;;;;;-4.28;100.00;101191.31;4992898;28;20058;-67
2022/12/13 03:25:48;;;;;;;22.10;11.57;;;;;;;-4.24;100.00;101199.75;4994931;28;20129;-66
2022/12/13 03:28:14;;;;;;;23.08;11.60;;;;;;;-4.25;100.00;101192.97;4986380;28;20473;-66
2022/12/13 03:30:41;;;;;;;27.48;12.98;;;;;;;-4.27;100.00;101192.13;4965842;28;20054;-66
2022/12/13 03:33:07;;;;;;;25.05;12.75;;;;;;;-4.28;100.00;101195.59;4988800;28;20949;-66
2022/12/13 03:35:34;;;;;;;22.77;11.38;;;;;;;-4.28;100.00;101200.72;4989927;28;20066;-66
2022/12/13 03:38:14;;;;;;;22.00;12.35;;;;;;;-4.23;100.00;101204.00;4987834;28;20487;-66
2022/12/13 03:41:11;;;;;;;26.40;13.05;;;;;;;-4.23;100.00;101194.59;4964613;28;20396;-66
2022/12/13 03:43:38;;;;;;;25.45;12.50;;;;;;;-4.28;100.00;101196.44;4982609;28;20126;-66
2022/12/13 03:46:05;;;;;;;25.70;12.65;;;;;;;-4.27;100.00;101194.69;4982916;28;20421;-66
2022/12/13 03:48:32;;;;;;;28.58;14.23;;;;;;;-4.29;100.00;101193.91;4982607;28;20132;-66
2022/12/13 03:50:59;;;;;;;26.05;13.20;;;;;;;-4.28;100.00;101193.03;4987308;28;20117;-67
2022/12/13 03:53:26;;;;;;;25.35;13.20;;;;;;;-4.30;100.00;101189.69;4987908;28;20046;-66
2022/12/13 03:56:01;;;;;;;23.75;12.57;;;;;;;-4.30;100.00;101194.78;4979916;28;20061;-66
2022/12/13 03:58:29;;;;;;;26.80;13.85;;;;;;;-4.33;100.00;101195.72;4976356;28;20046;-66
2022/12/13 04:01:13;;;;;;;23.67;12.82;;;;;;;-4.31;100.00;101204.22;4982080;28;20653;-66
2022/12/13 04:03:43;;;;;;;25.42;13.20;;;;;;;-4.32;100.00;101196.56;4978071;28;20047;-65
2022/12/13 04:06:10;;;;;;;26.67;12.88;;;;;;;-4.34;100.00;101200.88;4982881;28;20046;-65
2022/12/13 04:08:37;;;;;;;27.38;13.38;;;;;;;-4.42;100.00;101199.38;4978674;28;20065;-66
2022/12/13 04:13:51;;;;;;;24.00;12.30;;;;;;;-4.42;100.00;101201.09;4975322;28;20050;-65
2022/12/13 04:16:18;;;;;;;27.65;13.23;;;;;;;-4.45;100.00;101204.59;4987715;28;20638;-66
2022/12/13 04:18:44;;;;;;;29.88;13.02;;;;;;;-4.49;100.00;101202.13;4982882;28;20055;-66
2022/12/13 04:21:11;;;;;;;25.40;12.50;;;;;;;-4.52;100.00;101200.50;4990404;28;21210;-66
2022/12/13 04:23:37;;;;;;;21.88;12.48;;;;;;;-4.55;100.00;101205.69;4982923;28;20054;-65
2022/12/13 04:26:04;;;;;;;26.00;13.23;;;;;;;-4.57;100.00;101200.63;4979105;28;20057;-66
2022/12/13 04:28:30;;;;;;;29.50;11.95;;;;;;;-4.52;100.00;101197.94;4974632;28;20057;-65
2022/12/13 04:30:56;;;;;;;21.48;11.95;;;;;;;-4.54;100.00;101196.31;4995796;28;20089;-65
2022/12/13 04:33:23;;;;;;;19.50;11.95;;;;;;;-4.51;100.00;101198.78;4982499;28;20050;-65
2022/12/13 04:35:50;;;;;;;22.20;11.25;;;;;;;-4.50;100.00;101193.63;4986996;28;20054;-65
2022/12/13 04:38:17;;;;;;;24.63;12.15;;;;;;;-4.52;100.00;101197.94;4984678;28;20580;-65
2022/12/13 04:40:44;;;;;;;22.35;11.90;;;;;;;-4.55;100.00;101192.88;4983444;28;20490;-65
2022/12/13 04:43:10;;;;;;;23.38;13.25;;;;;;;-4.53;100.00;101192.84;4996516;28;20483;-65
2022/12/13 04:45:36;;;;;;;22.42;13.13;;;;;;;-4.51;100.00;101197.03;4982240;28;20454;-65
2022/12/13 04:48:03;;;;;;;21.00;11.75;;;;;;;-4.54;100.00;101188.63;4994969;28;20066;-65
2022/12/13 04:50:30;;;;;;;22.95;12.07;;;;;;;-4.59;100.00;101192.16;4982093;28;20474;-65
2022/12/13 04:52:56;;;;;;;23.10;12.40;;;;;;;-4.59;100.00;101191.28;4991214;28;20050;-66
2022/12/13 04:55:22;;;;;;;18.77;11.75;;;;;;;-4.60;100.00;101181.94;4994042;28;20117;-65
2022/12/13 04:57:49;;;;;;;22.20;11.73;;;;;;;-4.62;100.00;101184.53;4996231;28;20047;-66
2022/12/13 05:00:15;;;;;;;23.17;11.73;;;;;;;-4.63;100.00;101187.13;4968060;28;20054;-66
2022/12/13 05:02:42;;;;;;;21.05;12.15;;;;;;;-4.65;100.00;101196.56;4974647;28;20294;-66
2022/12/13 05:05:09;;;;;;;19.85;12.13;;;;;;;-4.64;100.00;101191.41;4983661;28;20113;-65
2022/12/13 05:07:36;;;;;;;22.85;11.27;;;;;;;-4.64;100.00;101193.97;4973152;28;20124;-65
2022/12/13 05:10:09;;;;;;;22.92;10.65;;;;;;;-4.60;100.00;101194.75;4982941;28;20120;-65
2022/12/13 05:12:35;;;;;;;21.17;12.27;;;;;;;-4.60;100.00;101192.19;4978079;28;20081;-65
2022/12/13 05:15:02;;;;;;;20.30;11.13;;;;;;;-4.58;100.00;101180.19;4994128;28;20057;-64
2022/12/13 05:17:29;;;;;;;17.67;10.15;;;;;;;-4.53;100.00;101174.94;4970678;28;20048;-64
2022/12/13 05:19:55;;;;;;;22.15;11.65;;;;;;;-4.53;100.00;101178.31;4970177;28;20054;-64
2022/12/13 05:22:21;;;;;;;19.75;10.98;;;;;;;-4.54;100.00;101174.09;4979219;28;20054;-64
2022/12/13 05:24:48;;;;;;;21.55;11.05;;;;;;;-4.53;100.00;101172.38;4987089;28;20054;-64
2022/12/13 05:27:15;;;;;;;21.52;10.73;;;;;;;-4.55;100.00;101171.56;4991450;28;20050;-65
2022/12/13 05:29:51;;;;;;;21.27;11.13;;;;;;;-4.60;100.00;101164.84;4981348;28;20054;-65
2022/12/13 05:32:35;;;;;;;20.70;10.82;;;;;;;-4.53;100.00;101170.63;4970178;28;20050;-65
2022/12/13 05:35:11;;;;;;;22.38;11.15;;;;;;;-4.58;100.00;101159.69;4973313;28;20046;-65
2022/12/13 05:37:38;;;;;;;17.17;9.50;;;;;;;-4.60;100.00;101164.84;4987037;28;20057;-65
2022/12/13 05:40:05;;;;;;;20.25;10.43;;;;;;;-4.58;100.00;101169.94;4987162;28;20885;-64
2022/12/13 05:42:32;;;;;;;15.00;8.95;;;;;;;-4.59;100.00;101165.69;4973183;28;20092;-64
2022/12/13 05:44:58;;;;;;;16.77;10.15;;;;;;;-4.60;100.00;101159.75;4986043;28;20057;-65
2022/12/13 05:47:24;;;;;;;17.95;10.60;;;;;;;-4.60;100.00;101164.03;4976980;28;20054;-66
2022/12/13 05:49:51;;;;;;;19.42;10.65;;;;;;;-4.62;100.00;101163.22;4981941;28;20057;-65
2022/12/13 05:52:19;;;;;;;18.08;9.85;;;;;;;-4.60;100.00;101158.91;4987475;28;20053;-65
2022/12/13 05:54:45;;;;;;;16.15;9.95;;;;;;;-4.61;100.00;101157.22;4987987;28;20469;-65
2022/12/13 05:57:12;;;;;;;16.30;9.23;;;;;;;-4.62;100.00;101148.69;4985235;28;20042;-64
2022/12/13 05:59:39;;;;;;;19.73;11.40;;;;;;;-4.67;100.00;101144.59;4965680;28;20054;-64
2022/12/13 06:02:05;;;;;;;23.83;10.60;;;;;;;-4.69;100.00;101151.47;4985421;28;20053;-65
2022/12/13 06:04:32;;;;;;;19.90;11.57;;;;;;;-4.71;100.00;101150.66;4961775;28;20050;-64
2022/12/13 06:06:58;;;;;;;17.48;10.10;;;;;;;-4.73;100.00;101145.59;4988500;28;20046;-64
2022/12/13 06:09:24;;;;;;;18.73;10.80;;;;;;;-4.77;100.00;101144.81;4981724;28;20054;-64
2022/12/13 06:11:51;;;;;;;16.70;11.00;;;;;;;-4.78;100.00;101150.84;4984952;28;20050;-65
2022/12/13 06:14:26;;;;;;;19.08;10.38;;;;;;;-4.79;100.00;101149.13;4969946;28;20093;-65
2022/12/13 06:16:53;;;;;;;22.42;10.68;;;;;;;-4.83;100.00;101144.16;4974172;28;20091;-64
2022/12/13 06:19:20;;;;;;;19.05;10.95;;;;;;;-4.83;100.00;101144.97;4986309;28;20413;-65
2022/12/13 06:21:48;;;;;;;21.85;12.23;;;;;;;-4.86;100.00;101145.09;4986085;28;20046;-64
2022/12/13 06:24:16;;;;;;;23.63;12.38;;;;;;;-4.87;100.00;101143.38;4967885;28;20105;-64
2022/12/13 06:26:42;;;;;;;24.27;13.20;;;;;;;-4.83;100.00;101139.03;4985221;28;20093;-64
2022/12/13 06:29:11;;;;;;;;;;;;;;;-4.76;100.00;101135.44;4977495;28;20284;-64
2022/12/13 06:31:55;;;;;;;22.38;11.85;;;;;;;-4.79;100.00;101138.06;4981510;28;20305;-65
2022/12/13 06:34:30;;;;;;;25.13;11.65;;;;;;;-4.78;100.00;101139.75;4977961;28;20054;-64
2022/12/13 06:36:57;;;;;;;23.95;12.73;;;;;;;-4.78;100.00;101142.31;4983593;28;20088;-64
2022/12/13 06:39:26;;;;;;;25.58;11.95;;;;;;;-4.76;100.00;101138.00;4978017;28;20054;-65
2022/12/13 06:41:58;;;;;;;25.95;12.70;;;;;;;-4.72;100.00;101148.97;4990856;28;20513;-65
2022/12/13 06:44:24;;;;;;;26.90;13.25;;;;;;;-4.70;100.00;101148.06;4970082;28;20062;-65
2022/12/13 06:46:50;;;;;;;30.48;13.68;;;;;;;-4.66;100.00;101146.28;4984929;28;20050;-65
2022/12/13 06:49:36;;;;;;;28.35;14.70;;;;;;;-4.64;100.00;101139.38;4976402;28;20054;-65
2022/12/13 06:52:03;;;;;;;28.08;13.35;;;;;;;-4.64;100.00;101140.22;4990273;28;20116;-65
2022/12/13 06:54:29;;;;;;;29.02;12.95;;;;;;;-4.64;100.00;101140.22;4988805;28;20105;-65
2022/12/13 06:56:56;;;;;;;27.50;12.82;;;;;;;-4.62;100.00;101141.03;4985854;28;20046;-65
2022/12/13 06:59:22;;;;;;;25.70;12.98;;;;;;;-4.60;100.00;101138.44;4980471;28;20396;-65
2022/12/13 07:01:48;;;;;;;25.90;14.00;;;;;;;-4.63;100.00;101146.16;4978629;28;20050;-65
2022/12/13 07:04:16;;;;;;;23.98;13.23;;;;;;;-4.65;100.00;101142.81;4980915;28;20120;-65
2022/12/13 07:06:56;;;;;;;29.17;13.52;;;;;;;-4.66;100.00;101144.53;4983561;28;20687;-64
2022/12/13 07:09:29;;;;;;;27.17;13.15;;;;;;;-4.64;100.00;101145.34;4984805;28;20058;-65
2022/12/13 07:11:55;;;;;;;32.25;14.07;;;;;;;-4.73;100.00;101145.59;4983924;28;20085;-66
2022/12/13 07:14:22;;;;;;;23.15;13.13;;;;;;;-4.71;100.00;101155.78;4978638;28;20047;-65
2022/12/13 07:16:48;;;;;;;26.20;13.45;;;;;;;-4.71;100.00;101141.25;4984482;28;20050;-65
2022/12/13 07:19:15;;;;;;;26.98;13.27;;;;;;;-4.72;100.00;101143.84;4975866;28;20105;-65
2022/12/13 07:21:50;;;;;;;35.40;14.30;;;;;;;-4.73;100.00;101144.75;4973042;28;20077;-65
2022/12/13 07:24:16;;;;;;;28.88;14.95;;;;;;;-4.72;100.00;101144.72;4977755;28;20766;-65
2022/12/13 07:26:43;;;;;;;24.67;12.88;;;;;;;-4.66;100.00;101149.66;4984941;28;20053;-64
2022/12/13 07:29:09;;;;;;;22.92;12.48;;;;;;;-4.68;100.00;101153.16;4978657;28;20050;-65
2022/12/13 07:31:36;;;;;;;25.23;12.88;;;;;;;-4.66;100.00;101153.94;4989018;28;20058;-65
2022/12/13 07:34:03;;;;;;;28.55;13.50;;;;;;;-4.66;100.00;101153.94;4985575;28;20130;-65
2022/12/13 07:36:29;;;;;;;28.23;13.65;;;;;;;-4.65;100.00;101156.44;4971811;28;20498;-65
2022/12/13 07:38:56;;;;;;;28.08;14.45;;;;;;;-4.64;100.00;101154.75;4964087;28;20065;-65
2022/12/13 07:41:24;;;;;;;23.95;13.38;;;;;;;-4.64;100.00;101144.50;4978850;28;20061;-65
2022/12/13 07:43:52;;;;;;;26.83;13.40;;;;;;;-4.67;100.00;101155.66;4990931;28;20057;-65
2022/12/13 07:46:22;;;;;;;40.47;17.20;;;;;;;-4.65;100.00;101159.00;4983810;28;20066;-65
2022/12/13 07:49:01;;;;;;;30.90;16.27;;;;;;;-4.65;100.00;101166.69;4983404;28;20046;-64
2022/12/13 07:51:27;;;;;;;;;;;;;;;-4.66;100.00;101169.31;4990321;28;20050;-65
2022/12/13 07:53:54;;;;;;;31.55;15.43;;;;;;;-4.73;100.00;101163.50;4961797;28;19984;-65
2022/12/13 07:56:20;;;;;;;30.30;16.77;;;;;;;-4.71;100.00;101171.16;4987016;28;20537;-65
2022/12/13 07:58:46;;;;;;;32.55;15.18;;;;;;;-4.70;100.00;101168.56;4982793;28;20050;-65
2022/12/13 08:01:13;;;;;;;26.02;13.82;;;;;;;-4.70;100.00;101175.41;4986199;28;20050;-65
2022/12/13 08:03:39;;;;;;;30.70;13.88;;;;;;;-4.68;100.00;101176.19;4975614;28;20422;-65
2022/12/13 08:06:08;;;;;;;29.25;14.38;;;;;;;-4.63;100.00;101182.84;4987751;28;20054;-65
2022/12/13 08:08:36;;;;;;;28.13;15.02;;;;;;;-4.67;100.00;101181.25;4990902;28;20057;-65
2022/12/13 08:11:04;;;;;;;31.45;14.20;;;;;;;-4.69;100.00;101187.28;4981612;28;20081;-65
2022/12/13 08:13:32;;;;;;;26.13;13.82;;;;;;;-4.68;100.00;101191.56;4982069;28;20042;-65
2022/12/13 08:16:00;;;;;;;25.75;14.00;;;;;;;-4.62;100.00;101183.72;4965696;28;20058;-65
2022/12/13 08:18:28;;;;;;;27.67;14.87;;;;;;;-4.62;100.00;101181.16;4983682;28;20061;-65
2022/12/13 08:21:02;;;;;;;30.83;15.37;;;;;;;-4.62;100.00;101181.16;4986857;28;20054;-65
2022/12/13 08:23:39;;;;;;;24.42;14.55;;;;;;;-4.62;100.00;101191.38;4983498;28;20057;-65
2022/12/13 08:26:06;;;;;;;27.60;14.18;;;;;;;-4.63;100.00;101193.09;4989222;28;20384;-65
2022/12/13 08:28:33;;;;;;;27.13;14.02;;;;;;;-4.60;100.00;101189.63;4980688;28;20128;-65
2022/12/13 08:31:10;;;;;;;30.80;13.55;;;;;;;-4.55;100.00;101177.53;4983880;28;20054;-65
2022/12/13 08:33:39;;;;;;;31.02;13.40;;;;;;;-4.54;100.00;101180.94;4990178;28;20476;-65
2022/12/13 08:36:15;;;;;;;28.27;14.65;;;;;;;-4.48;100.00;101180.78;4988119;28;20454;-65
2022/12/13 08:38:42;;;;;;;33.17;13.93;;;;;;;-4.49;100.00;101179.09;4981216;28;20424;-64
2022/12/13 08:41:09;;;;;;;33.88;16.15;;;;;;;-4.47;100.00;101175.63;4995974;28;20141;-65
2022/12/13 08:43:36;;;;;;;27.65;14.90;;;;;;;-4.43;100.00;101182.34;4979329;28;20058;-65
2022/12/13 08:46:02;;;;;;;31.55;15.65;;;;;;;-4.45;100.00;101175.56;4980872;28;20061;-64
2022/12/13 08:48:29;;;;;;;28.80;15.00;;;;;;;-4.46;100.00;101176.44;4990126;28;20065;-64
2022/12/13 08:51:04;;;;;;;33.42;15.40;;;;;;;-4.38;100.00;101172.78;4981296;28;20065;-64
2022/12/13 08:53:30;;;;;;;31.33;15.57;;;;;;;-4.37;100.00;101179.59;4991778;28;20053;-64
2022/12/13 08:56:10;;;;;;;28.25;15.35;;;;;;;-4.26;100.00;101183.59;4950731;28;20058;-65
2022/12/13 08:58:37;;;;;;;33.85;17.13;;;;;;;-4.22;100.00;101198.81;4975874;28;20046;-64
2022/12/13 09:01:05;;;;;;;36.15;17.17;;;;;;;-4.20;100.00;101194.50;4980807;28;20050;-64
2022/12/13 09:03:33;;;;;;;34.85;16.58;;;;;;;-4.18;100.00;101187.59;4987188;28;20108;-64
2022/12/13 09:06:15;;;;;;;39.03;16.58;;;;;;;-4.08;100.00;101184.78;4982555;28;20057;-64
2022/12/13 09:08:42;;;;;;;31.63;17.10;;;;;;;-4.08;100.00;101195.84;4988668;28;20058;-65
2022/12/13 09:11:17;;;;;;;39.00;17.92;;;;;;;-4.09;100.00;101185.69;4979897;28;20889;-64
2022/12/13 09:13:49;;;;;;;36.30;16.08;;;;;;;-4.05;100.00;101185.53;4963875;28;20152;-64
2022/12/13 09:16:23;;;;;;;36.90;17.38;;;;;;;-3.95;100.00;101187.84;4985466;28;20556;-64
2022/12/13 09:18:51;;;;;;;37.92;17.85;;;;;;;-3.86;100.00;101202.94;4979277;28;20238;-64
2022/12/13 09:21:21;;;;;;;35.85;17.88;;;;;;;-3.87;100.00;101194.41;4984823;28;20046;-63
2022/12/13 09:23:57;;;;;;;37.35;16.65;;;;;;;-3.84;100.00;101196.03;4978770;28;20145;-64
2022/12/13 09:26:27;;;;;;;36.97;18.48;;;;;;;-3.80;100.00;101200.22;4980073;28;20131;-64
2022/12/13 09:28:53;;;;;;;33.53;17.10;;;;;;;-3.72;100.00;101198.25;4971335;28;20054;-65
2022/12/13 09:31:21;;;;;;;38.20;18.63;;;;;;;-3.66;100.00;101202.38;4979451;28;20109;-65
2022/12/13 09:33:48;;;;;;;32.40;17.77;;;;;;;-3.66;100.00;101200.63;4987180;28;20096;-64
2022/12/13 09:36:17;;;;;;;39.45;18.83;;;;;;;-3.57;100.00;101202.06;4978518;28;20552;-65
2022/12/13 09:38:45;;;;;;;45.88;20.92;;;;;;;-3.55;100.00;101204.59;4981247;28;20086;-65
2022/12/13 09:41:24;;;;;;;40.22;19.65;;;;;;;-3.50;100.00;101202.75;4985160;28;20054;-64
2022/12/13 09:43:59;;;;;;;34.05;18.25;;;;;;;-3.48;100.00;101204.34;4987610;28;20050;-64
2022/12/13 09:46:29;;;;;;;35.92;18.38;;;;;;;-3.45;100.00;101198.28;4985760;28;20520;-65
2022/12/13 09:49:03;;;;;;;41.10;18.90;;;;;;;-3.36;100.00;101199.75;4976052;28;20076;-65
2022/12/13 09:51:38;;;;;;;34.63;18.08;;;;;;;-3.27;100.00;101204.59;4986579;28;20643;-63
2022/12/13 09:54:22;;;;;;;38.83;18.30;;;;;;;-3.23;100.00;101193.34;4976856;28;20050;-64
2022/12/13 09:56:49;;;;;;;44.50;19.65;;;;;;;-3.19;100.00;101195.75;4984295;28;20054;-64
2022/12/13 09:59:20;;;;;;;34.75;17.40;;;;;;;-3.08;100.00;101195.38;4972026;28;20050;-64
2022/12/13 10:01:46;;;;;;;35.35;18.67;;;;;;;-3.06;100.00;101192.78;4985701;28;20046;-63
2022/12/13 10:04:16;;;;;;;41.45;20.15;;;;;;;-3.00;100.00;101185.75;4982842;28;20144;-64
2022/12/13 10:06:42;;;;;;;35.08;16.92;;;;;;;-2.91;100.00;101187.16;4981962;28;20438;-64
2022/12/13 10:09:12;;;;;;;39.72;19.15;;;;;;;-2.83;100.00;101179.19;4991693;28;20238;-64
2022/12/13 10:11:50;;;;;;;36.60;19.42;;;;;;;-2.79;100.00;101173.88;4983330;28;20050;-63
2022/12/13 10:14:26;;;;;;;38.92;19.92;;;;;;;-2.75;100.00;101177.19;4979678;28;20465;-65
2022/12/13 10:17:02;;;;;;;39.33;19.92;;;;;;;-2.70;100.00;101172.75;4962654;28;20077;-64
2022/12/13 10:19:38;;;;;;;36.95;18.38;;;;;;;-2.69;100.00;101176.16;4988285;28;20132;-64
2022/12/13 10:22:10;;;;;;;42.42;20.20;;;;;;;-2.66;100.00;101171.75;4963385;28;20133;-63
2022/12/13 10:24:46;;;;;;;43.25;20.40;;;;;;;-2.58;100.00;101174.06;4987295;28;20053;-64
2022/12/13 10:27:15;;;;;;;41.35;21.83;;;;;;;-2.63;100.00;101168.22;4989180;28;20046;-65
2022/12/13 10:30:04;;;;;;;41.35;21.77;;;;;;;-2.56;100.00;101167.13;4974666;28;20058;-64
2022/12/13 10:32:41;;;;;;;42.42;21.67;;;;;;;-2.59;100.00;101160.38;4981520;28;20513;-64
2022/12/13 10:35:22;;;;;;;44.70;21.40;;;;;;;-2.53;100.00;101159.31;4979728;28;20081;-64
2022/12/13 10:37:49;;;;;;;41.08;21.17;;;;;;;-2.55;100.00;101165.41;4986114;28;20054;-65
2022/12/13 10:40:34;;;;;;;35.35;17.90;;;;;;;-2.46;100.00;101158.19;4975017;28;20069;-64
2022/12/13 10:43:11;;;;;;;41.97;20.17;;;;;;;-2.43;100.00;101155.53;4977155;28;20097;-64
2022/12/13 10:45:38;;;;;;;42.55;19.45;;;;;;;-2.44;100.00;101143.56;4976073;28;20093;-64
2022/12/13 10:48:16;;;;;;;36.30;18.85;;;;;;;-2.37;100.00;101146.78;4987178;28;20047;-64
2022/12/13 10:50:42;;;;;;;35.10;18.33;;;;;;;-2.39;100.00;101146.81;4966690;28;20046;-64
2022/12/13 10:53:16;;;;;;;39.63;18.50;;;;;;;-2.29;100.00;101141.34;4986235;28;20108;-64
2022/12/13 10:55:54;;;;;;;36.55;18.02;;;;;;;-2.25;100.00;101138.59;4986742;28;20562;-64
2022/12/13 10:59:29;;;;;;;36.78;18.10;;;;;;;-2.17;100.00;101129.78;4974820;28;20078;-65
2022/12/13 11:01:55;;;;;;;43.53;19.42;;;;;;;-2.14;100.00;101127.91;4880687;29;20053;-64
2022/12/13 11:04:33;;;;;;;31.98;17.27;;;;;;;-2.02;100.00;101126.63;4884590;29;20097;-65
2022/12/13 11:07:21;;;;;;;34.83;17.67;;;;;;;-1.95;100.00;101122.94;4891262;29;20052;-64
2022/12/13 11:09:47;;;;;;;32.83;18.00;;;;;;;-1.92;100.00;101112.53;4879207;29;21391;-64
2022/12/13 11:12:24;;;;;;;40.60;19.75;;;;;;;-1.85;100.00;101116.53;4882494;29;20069;-64
2022/12/13 11:15:00;;;;;;;41.63;19.50;;;;;;;-1.73;100.00;101115.22;4875582;29;20517;-64
2022/12/13 11:17:30;;;;;;;40.10;19.73;;;;;;;-1.66;100.00;101115.81;4885520;29;20618;-64
2022/12/13 11:20:01;;;;;;;38.75;19.58;;;;;;;-1.59;100.00;101122.38;4887913;29;20052;-64
2022/12/13 11:22:30;;;;;;;42.80;21.20;;;;;;;-1.51;100.00;101119.50;4894431;29;20064;-64
2022/12/13 11:25:01;;;;;;;40.05;20.30;;;;;;;-1.41;100.00;101113.09;4875325;29;20068;-64